sensor_id;sensor_type;location;lat;lon;timestamp;temperature;humidity
70271;SHT31;57680;54.292;18.598;2023-07-31T00:02:11;15.46;91.13
70271;SHT31;57680;54.292;18.598;2023-07-31T00:04:37;15.42;92.31
70271;SHT31;57680;54.292;18.598;2023-07-31T00:07:02;15.36;92.75
70271;SHT31;57680;54.292;18.598;2023-07-31T00:09:27;15.30;93.63
70271;SHT31;57680;54.292;18.598;2023-07-31T00:11:53;15.36;93.51
70271;SHT31;57680;54.292;18.598;2023-07-31T00:14:18;15.29;93.94
70271;SHT31;57680;54.292;18.598;2023-07-31T00:16:43;15.30;94.62
70271;SHT31;57680;54.292;18.598;2023-07-31T00:19:09;15.27;94.75
70271;SHT31;57680;54.292;18.598;2023-07-31T00:21:34;15.27;94.83
70271;SHT31;57680;54.292;18.598;2023-07-31T00:23:59;15.24;95.61
70271;SHT31;57680;54.292;18.598;2023-07-31T00:26:25;15.19;95.37
70271;SHT31;57680;54.292;18.598;2023-07-31T00:28:50;15.16;95.57
70271;SHT31;57680;54.292;18.598;2023-07-31T00:31:15;15.13;95.66
70271;SHT31;57680;54.292;18.598;2023-07-31T00:33:41;15.12;95.70
70271;SHT31;57680;54.292;18.598;2023-07-31T00:36:06;15.10;95.79
70271;SHT31;57680;54.292;18.598;2023-07-31T00:38:31;15.06;96.21
70271;SHT31;57680;54.292;18.598;2023-07-31T00:40:57;14.99;96.24
70271;SHT31;57680;54.292;18.598;2023-07-31T00:43:22;14.95;96.20
70271;SHT31;57680;54.292;18.598;2023-07-31T00:45:47;14.89;96.43
70271;SHT31;57680;54.292;18.598;2023-07-31T00:48:13;14.85;96.52
70271;SHT31;57680;54.292;18.598;2023-07-31T00:50:38;14.81;96.50
70271;SHT31;57680;54.292;18.598;2023-07-31T00:53:04;14.76;96.51
70271;SHT31;57680;54.292;18.598;2023-07-31T00:55:30;14.76;96.61
70271;SHT31;57680;54.292;18.598;2023-07-31T00:57:56;14.78;96.61
70271;SHT31;57680;54.292;18.598;2023-07-31T01:00:21;14.75;96.63
70271;SHT31;57680;54.292;18.598;2023-07-31T01:02:48;14.74;96.55
70271;SHT31;57680;54.292;18.598;2023-07-31T01:05:14;14.72;96.68
70271;SHT31;57680;54.292;18.598;2023-07-31T01:08:06;14.62;96.77
70271;SHT31;57680;54.292;18.598;2023-07-31T01:10:40;14.55;96.79
70271;SHT31;57680;54.292;18.598;2023-07-31T01:13:07;14.55;96.87
70271;SHT31;57680;54.292;18.598;2023-07-31T01:15:33;14.49;97.04
70271;SHT31;57680;54.292;18.598;2023-07-31T01:17:58;14.49;97.20
70271;SHT31;57680;54.292;18.598;2023-07-31T01:20:24;14.51;97.47
70271;SHT31;57680;54.292;18.598;2023-07-31T01:31:24;14.30;97.82
70271;SHT31;57680;54.292;18.598;2023-07-31T01:33:52;14.25;97.96
70271;SHT31;57680;54.292;18.598;2023-07-31T01:36:18;14.21;98.26
70271;SHT31;57680;54.292;18.598;2023-07-31T01:38:43;14.20;98.38
70271;SHT31;57680;54.292;18.598;2023-07-31T01:41:09;14.20;98.36
70271;SHT31;57680;54.292;18.598;2023-07-31T01:43:34;14.18;98.25
70271;SHT31;57680;54.292;18.598;2023-07-31T01:46:00;14.16;98.17
70271;SHT31;57680;54.292;18.598;2023-07-31T01:48:25;14.10;98.23
70271;SHT31;57680;54.292;18.598;2023-07-31T01:50:50;14.04;98.34
70271;SHT31;57680;54.292;18.598;2023-07-31T01:53:16;14.00;98.44
70271;SHT31;57680;54.292;18.598;2023-07-31T01:55:41;13.96;98.34
70271;SHT31;57680;54.292;18.598;2023-07-31T01:58:06;13.94;98.33
70271;SHT31;57680;54.292;18.598;2023-07-31T02:00:32;13.97;98.20
70271;SHT31;57680;54.292;18.598;2023-07-31T02:02:59;13.94;97.82
70271;SHT31;57680;54.292;18.598;2023-07-31T02:05:24;13.90;97.62
70271;SHT31;57680;54.292;18.598;2023-07-31T02:07:50;13.87;97.67
70271;SHT31;57680;54.292;18.598;2023-07-31T02:10:15;13.84;97.37
70271;SHT31;57680;54.292;18.598;2023-07-31T02:12:40;13.83;97.22
70271;SHT31;57680;54.292;18.598;2023-07-31T02:15:06;13.86;96.89
70271;SHT31;57680;54.292;18.598;2023-07-31T02:17:31;13.89;96.74
70271;SHT31;57680;54.292;18.598;2023-07-31T02:19:57;13.89;96.84
70271;SHT31;57680;54.292;18.598;2023-07-31T02:22:22;13.90;96.73
70271;SHT31;57680;54.292;18.598;2023-07-31T02:24:48;13.93;96.75
70271;SHT31;57680;54.292;18.598;2023-07-31T02:27:13;13.91;96.86
70271;SHT31;57680;54.292;18.598;2023-07-31T02:29:38;13.90;96.85
70271;SHT31;57680;54.292;18.598;2023-07-31T02:32:04;13.91;96.91
70271;SHT31;57680;54.292;18.598;2023-07-31T02:34:29;13.91;96.80
70271;SHT31;57680;54.292;18.598;2023-07-31T02:36:55;13.87;96.78
70271;SHT31;57680;54.292;18.598;2023-07-31T02:39:20;13.87;96.72
70271;SHT31;57680;54.292;18.598;2023-07-31T02:41:46;13.84;96.67
70271;SHT31;57680;54.292;18.598;2023-07-31T02:44:11;13.80;96.70
70271;SHT31;57680;54.292;18.598;2023-07-31T02:46:36;13.79;96.78
70271;SHT31;57680;54.292;18.598;2023-07-31T02:49:02;13.79;96.70
70271;SHT31;57680;54.292;18.598;2023-07-31T02:51:27;13.77;96.74
70271;SHT31;57680;54.292;18.598;2023-07-31T02:53:52;13.76;96.61
70271;SHT31;57680;54.292;18.598;2023-07-31T02:56:18;13.73;96.61
70271;SHT31;57680;54.292;18.598;2023-07-31T02:58:43;13.72;96.64
70271;SHT31;57680;54.292;18.598;2023-07-31T03:01:08;13.70;96.71
70271;SHT31;57680;54.292;18.598;2023-07-31T03:03:34;13.76;96.73
70271;SHT31;57680;54.292;18.598;2023-07-31T03:05:59;13.74;96.64
70271;SHT31;57680;54.292;18.598;2023-07-31T03:08:24;13.77;96.64
70271;SHT31;57680;54.292;18.598;2023-07-31T03:10:50;13.80;96.56
70271;SHT31;57680;54.292;18.598;2023-07-31T03:13:15;13.80;96.66
70271;SHT31;57680;54.292;18.598;2023-07-31T03:15:44;13.79;96.63
70271;SHT31;57680;54.292;18.598;2023-07-31T03:18:09;13.82;96.77
70271;SHT31;57680;54.292;18.598;2023-07-31T03:20:34;14.06;96.39
70271;SHT31;57680;54.292;18.598;2023-07-31T03:23:00;14.40;95.18
70271;SHT31;57680;54.292;18.598;2023-07-31T03:25:25;14.75;94.06
70271;SHT31;57680;54.292;18.598;2023-07-31T03:27:51;14.76;93.62
70271;SHT31;57680;54.292;18.598;2023-07-31T03:30:16;14.89;93.22
70271;SHT31;57680;54.292;18.598;2023-07-31T03:32:41;14.68;93.28
70271;SHT31;57680;54.292;18.598;2023-07-31T03:35:07;14.52;94.06
70271;SHT31;57680;54.292;18.598;2023-07-31T03:37:32;14.45;94.29
70271;SHT31;57680;54.292;18.598;2023-07-31T03:39:57;14.89;94.09
70271;SHT31;57680;54.292;18.598;2023-07-31T03:42:23;15.53;91.72
70271;SHT31;57680;54.292;18.598;2023-07-31T03:44:48;16.12;88.99
70271;SHT31;57680;54.292;18.598;2023-07-31T03:47:13;16.55;88.35
70271;SHT31;57680;54.292;18.598;2023-07-31T03:49:39;16.83;85.94
70271;SHT31;57680;54.292;18.598;2023-07-31T03:52:04;17.18;84.18
70271;SHT31;57680;54.292;18.598;2023-07-31T03:54:30;17.44;83.31
70271;SHT31;57680;54.292;18.598;2023-07-31T03:56:55;17.63;82.95
70271;SHT31;57680;54.292;18.598;2023-07-31T03:59:20;17.71;81.99
70271;SHT31;57680;54.292;18.598;2023-07-31T04:01:45;17.93;80.93
70271;SHT31;57680;54.292;18.598;2023-07-31T04:04:11;18.14;80.02
70271;SHT31;57680;54.292;18.598;2023-07-31T04:06:36;18.36;79.68
70271;SHT31;57680;54.292;18.598;2023-07-31T04:09:02;18.44;79.22
70271;SHT31;57680;54.292;18.598;2023-07-31T04:11:28;18.55;78.49
70271;SHT31;57680;54.292;18.598;2023-07-31T04:13:53;18.72;78.39
70271;SHT31;57680;54.292;18.598;2023-07-31T04:16:19;18.87;78.66
70271;SHT31;57680;54.292;18.598;2023-07-31T04:18:44;19.05;77.83
70271;SHT31;57680;54.292;18.598;2023-07-31T04:21:09;19.06;76.01
70271;SHT31;57680;54.292;18.598;2023-07-31T04:23:34;19.12;76.05
70271;SHT31;57680;54.292;18.598;2023-07-31T04:26:00;19.22;75.46
70271;SHT31;57680;54.292;18.598;2023-07-31T04:28:25;19.42;75.01
70271;SHT31;57680;54.292;18.598;2023-07-31T04:30:51;19.81;75.14
70271;SHT31;57680;54.292;18.598;2023-07-31T04:33:16;20.00;73.44
70271;SHT31;57680;54.292;18.598;2023-07-31T04:35:41;20.25;72.35
70271;SHT31;57680;54.292;18.598;2023-07-31T04:38:07;20.26;73.08
70271;SHT31;57680;54.292;18.598;2023-07-31T04:40:32;20.35;72.43
70271;SHT31;57680;54.292;18.598;2023-07-31T04:42:57;20.57;71.92
70271;SHT31;57680;54.292;18.598;2023-07-31T04:45:23;20.62;70.90
70271;SHT31;57680;54.292;18.598;2023-07-31T04:47:48;21.01;70.22
70271;SHT31;57680;54.292;18.598;2023-07-31T04:50:14;20.90;70.08
70271;SHT31;57680;54.292;18.598;2023-07-31T04:52:39;21.24;70.42
70271;SHT31;57680;54.292;18.598;2023-07-31T04:55:05;21.38;70.22
70271;SHT31;57680;54.292;18.598;2023-07-31T04:57:30;21.52;68.67
70271;SHT31;57680;54.292;18.598;2023-07-31T04:59:55;21.26;69.07
70271;SHT31;57680;54.292;18.598;2023-07-31T05:02:21;21.42;69.67
70271;SHT31;57680;54.292;18.598;2023-07-31T05:04:46;21.35;68.82
70271;SHT31;57680;54.292;18.598;2023-07-31T05:07:11;21.08;68.51
70271;SHT31;57680;54.292;18.598;2023-07-31T05:09:37;21.42;68.39
70271;SHT31;57680;54.292;18.598;2023-07-31T05:12:04;21.66;67.92
70271;SHT31;57680;54.292;18.598;2023-07-31T05:14:30;21.62;67.15
70271;SHT31;57680;54.292;18.598;2023-07-31T05:16:55;21.85;67.59
70271;SHT31;57680;54.292;18.598;2023-07-31T05:19:20;21.93;65.79
70271;SHT31;57680;54.292;18.598;2023-07-31T05:21:46;21.90;66.64
70271;SHT31;57680;54.292;18.598;2023-07-31T05:24:11;21.69;66.58
70271;SHT31;57680;54.292;18.598;2023-07-31T05:26:36;21.78;66.03
70271;SHT31;57680;54.292;18.598;2023-07-31T05:29:02;21.99;65.77
70271;SHT31;57680;54.292;18.598;2023-07-31T05:31:27;21.96;65.06
70271;SHT31;57680;54.292;18.598;2023-07-31T05:33:53;22.09;65.53
70271;SHT31;57680;54.292;18.598;2023-07-31T05:36:18;21.96;64.31
70271;SHT31;57680;54.292;18.598;2023-07-31T05:38:44;22.03;64.15
70271;SHT31;57680;54.292;18.598;2023-07-31T05:41:09;22.13;64.51
70271;SHT31;57680;54.292;18.598;2023-07-31T05:43:35;22.12;62.92
70271;SHT31;57680;54.292;18.598;2023-07-31T05:46:00;22.09;63.85
70271;SHT31;57680;54.292;18.598;2023-07-31T05:48:25;22.33;65.68
70271;SHT31;57680;54.292;18.598;2023-07-31T05:50:51;22.61;65.58
70271;SHT31;57680;54.292;18.598;2023-07-31T05:53:16;22.40;62.91
70271;SHT31;57680;54.292;18.598;2023-07-31T05:55:41;22.44;63.49
70271;SHT31;57680;54.292;18.598;2023-07-31T05:58:07;22.39;63.19
70271;SHT31;57680;54.292;18.598;2023-07-31T06:00:35;22.13;62.68
70271;SHT31;57680;54.292;18.598;2023-07-31T06:03:00;22.46;63.50
70271;SHT31;57680;54.292;18.598;2023-07-31T06:05:26;22.70;62.37
70271;SHT31;57680;54.292;18.598;2023-07-31T06:07:51;22.81;61.81
70271;SHT31;57680;54.292;18.598;2023-07-31T06:10:16;22.84;61.41
70271;SHT31;57680;54.292;18.598;2023-07-31T06:12:42;22.92;61.82
70271;SHT31;57680;54.292;18.598;2023-07-31T06:15:07;22.81;61.17
70271;SHT31;57680;54.292;18.598;2023-07-31T06:17:32;22.94;60.67
70271;SHT31;57680;54.292;18.598;2023-07-31T06:19:58;23.22;62.05
70271;SHT31;57680;54.292;18.598;2023-07-31T06:22:23;23.38;61.67
70271;SHT31;57680;54.292;18.598;2023-07-31T06:24:48;23.49;60.18
70271;SHT31;57680;54.292;18.598;2023-07-31T06:27:14;23.43;60.62
70271;SHT31;57680;54.292;18.598;2023-07-31T06:29:39;23.25;59.35
70271;SHT31;57680;54.292;18.598;2023-07-31T06:32:05;22.86;59.03
70271;SHT31;57680;54.292;18.598;2023-07-31T06:34:30;22.65;60.54
70271;SHT31;57680;54.292;18.598;2023-07-31T06:36:56;22.26;61.59
70271;SHT31;57680;54.292;18.598;2023-07-31T06:39:21;22.41;62.35
70271;SHT31;57680;54.292;18.598;2023-07-31T06:41:47;22.40;62.97
70271;SHT31;57680;54.292;18.598;2023-07-31T06:44:12;22.35;63.04
70271;SHT31;57680;54.292;18.598;2023-07-31T06:46:37;22.30;61.86
70271;SHT31;57680;54.292;18.598;2023-07-31T06:49:03;22.36;62.64
70271;SHT31;57680;54.292;18.598;2023-07-31T06:51:28;22.39;61.69
70271;SHT31;57680;54.292;18.598;2023-07-31T06:53:54;22.00;61.25
70271;SHT31;57680;54.292;18.598;2023-07-31T06:56:20;21.93;62.63
70271;SHT31;57680;54.292;18.598;2023-07-31T06:58:45;21.99;62.50
70271;SHT31;57680;54.292;18.598;2023-07-31T07:01:11;21.78;61.08
70271;SHT31;57680;54.292;18.598;2023-07-31T07:03:36;21.81;61.08
70271;SHT31;57680;54.292;18.598;2023-07-31T07:06:01;21.75;61.12
70271;SHT31;57680;54.292;18.598;2023-07-31T07:08:27;21.62;61.81
70271;SHT31;57680;54.292;18.598;2023-07-31T07:10:52;21.61;61.28
70271;SHT31;57680;54.292;18.598;2023-07-31T07:13:17;21.79;63.14
70271;SHT31;57680;54.292;18.598;2023-07-31T07:15:43;21.99;62.33
70271;SHT31;57680;54.292;18.598;2023-07-31T07:18:08;22.20;62.78
70271;SHT31;57680;54.292;18.598;2023-07-31T07:20:33;22.43;62.06
70271;SHT31;57680;54.292;18.598;2023-07-31T07:22:58;22.53;61.53
70271;SHT31;57680;54.292;18.598;2023-07-31T07:25:24;22.39;60.83
70271;SHT31;57680;54.292;18.598;2023-07-31T07:27:49;22.49;60.05
70271;SHT31;57680;54.292;18.598;2023-07-31T07:30:15;22.60;60.13
70271;SHT31;57680;54.292;18.598;2023-07-31T07:32:40;22.63;60.82
70271;SHT31;57680;54.292;18.598;2023-07-31T07:35:06;22.80;60.22
70271;SHT31;57680;54.292;18.598;2023-07-31T07:37:31;22.77;58.73
70271;SHT31;57680;54.292;18.598;2023-07-31T07:39:57;22.88;58.36
70271;SHT31;57680;54.292;18.598;2023-07-31T07:42:22;22.60;59.43
70271;SHT31;57680;54.292;18.598;2023-07-31T07:44:48;22.54;57.98
70271;SHT31;57680;54.292;18.598;2023-07-31T07:47:13;22.47;60.34
70271;SHT31;57680;54.292;18.598;2023-07-31T07:49:39;22.28;59.87
70271;SHT31;57680;54.292;18.598;2023-07-31T07:52:04;22.16;59.82
70271;SHT31;57680;54.292;18.598;2023-07-31T07:54:30;22.54;60.39
70271;SHT31;57680;54.292;18.598;2023-07-31T07:56:56;22.14;59.18
70271;SHT31;57680;54.292;18.598;2023-07-31T07:59:21;22.22;58.50
70271;SHT31;57680;54.292;18.598;2023-07-31T08:01:46;22.77;59.72
70271;SHT31;57680;54.292;18.598;2023-07-31T08:04:12;22.91;57.79
70271;SHT31;57680;54.292;18.598;2023-07-31T08:06:37;23.09;56.60
70271;SHT31;57680;54.292;18.598;2023-07-31T08:09:02;23.21;54.94
70271;SHT31;57680;54.292;18.598;2023-07-31T08:11:28;22.56;56.46
70271;SHT31;57680;54.292;18.598;2023-07-31T08:13:53;22.94;56.16
70271;SHT31;57680;54.292;18.598;2023-07-31T08:16:18;22.72;55.37
70271;SHT31;57680;54.292;18.598;2023-07-31T08:18:44;22.47;55.53
70271;SHT31;57680;54.292;18.598;2023-07-31T08:21:09;22.51;55.23
70271;SHT31;57680;54.292;18.598;2023-07-31T08:23:34;22.24;54.23
70271;SHT31;57680;54.292;18.598;2023-07-31T08:26:00;22.30;56.68
70271;SHT31;57680;54.292;18.598;2023-07-31T08:28:25;22.10;57.04
70271;SHT31;57680;54.292;18.598;2023-07-31T08:30:50;22.47;56.90
70271;SHT31;57680;54.292;18.598;2023-07-31T08:33:16;22.81;56.82
70271;SHT31;57680;54.292;18.598;2023-07-31T08:35:41;22.90;54.57
70271;SHT31;57680;54.292;18.598;2023-07-31T08:38:07;22.39;55.60
70271;SHT31;57680;54.292;18.598;2023-07-31T08:40:36;22.22;55.73
70271;SHT31;57680;54.292;18.598;2023-07-31T08:43:01;22.26;54.74
70271;SHT31;57680;54.292;18.598;2023-07-31T08:45:27;22.68;55.15
70271;SHT31;57680;54.292;18.598;2023-07-31T08:47:52;22.95;54.93
70271;SHT31;57680;54.292;18.598;2023-07-31T08:50:19;23.33;55.34
70271;SHT31;57680;54.292;18.598;2023-07-31T08:52:46;23.48;55.00
70271;SHT31;57680;54.292;18.598;2023-07-31T08:55:12;23.56;55.36
70271;SHT31;57680;54.292;18.598;2023-07-31T08:57:38;22.78;53.93
70271;SHT31;57680;54.292;18.598;2023-07-31T09:00:06;22.95;53.23
70271;SHT31;57680;54.292;18.598;2023-07-31T09:02:38;22.59;54.82
70271;SHT31;57680;54.292;18.598;2023-07-31T09:05:07;22.51;54.06
70271;SHT31;57680;54.292;18.598;2023-07-31T09:07:33;22.19;54.74
70271;SHT31;57680;54.292;18.598;2023-07-31T09:09:59;22.44;55.48
70271;SHT31;57680;54.292;18.598;2023-07-31T09:12:25;23.02;54.58
70271;SHT31;57680;54.292;18.598;2023-07-31T09:14:50;23.07;55.11
70271;SHT31;57680;54.292;18.598;2023-07-31T09:17:16;22.99;53.76
70271;SHT31;57680;54.292;18.598;2023-07-31T09:19:53;22.94;53.75
70271;SHT31;57680;54.292;18.598;2023-07-31T09:22:31;23.26;53.02
70271;SHT31;57680;54.292;18.598;2023-07-31T09:25:13;23.32;53.37
70271;SHT31;57680;54.292;18.598;2023-07-31T09:30:15;23.79;53.90
70271;SHT31;57680;54.292;18.598;2023-07-31T09:32:40;23.66;52.43
70271;SHT31;57680;54.292;18.598;2023-07-31T09:35:34;23.63;52.68
70271;SHT31;57680;54.292;18.598;2023-07-31T09:38:03;23.59;53.38
70271;SHT31;57680;54.292;18.598;2023-07-31T09:40:32;23.09;52.60
70271;SHT31;57680;54.292;18.598;2023-07-31T09:43:00;22.70;52.88
70271;SHT31;57680;54.292;18.598;2023-07-31T09:45:26;22.59;54.20
70271;SHT31;57680;54.292;18.598;2023-07-31T09:47:52;22.32;53.71
70271;SHT31;57680;54.292;18.598;2023-07-31T09:50:17;22.35;55.11
70271;SHT31;57680;54.292;18.598;2023-07-31T09:52:43;22.29;53.54
70271;SHT31;57680;54.292;18.598;2023-07-31T09:55:09;22.39;52.25
70271;SHT31;57680;54.292;18.598;2023-07-31T09:57:39;22.80;51.35
70271;SHT31;57680;54.292;18.598;2023-07-31T10:00:05;22.97;53.69
70271;SHT31;57680;54.292;18.598;2023-07-31T10:02:31;22.92;54.11
70271;SHT31;57680;54.292;18.598;2023-07-31T10:04:59;22.71;54.21
70271;SHT31;57680;54.292;18.598;2023-07-31T10:07:27;22.77;55.70
70271;SHT31;57680;54.292;18.598;2023-07-31T10:09:55;23.28;56.09
70271;SHT31;57680;54.292;18.598;2023-07-31T10:12:25;23.46;54.11
70271;SHT31;57680;54.292;18.598;2023-07-31T10:14:52;23.35;55.14
70271;SHT31;57680;54.292;18.598;2023-07-31T10:17:19;23.12;54.74
70271;SHT31;57680;54.292;18.598;2023-07-31T10:19:46;23.26;57.03
70271;SHT31;57680;54.292;18.598;2023-07-31T10:22:13;23.46;55.00
70271;SHT31;57680;54.292;18.598;2023-07-31T10:24:39;23.12;53.77
70271;SHT31;57680;54.292;18.598;2023-07-31T10:27:07;23.48;53.82
70271;SHT31;57680;54.292;18.598;2023-07-31T10:29:33;23.52;51.76
70271;SHT31;57680;54.292;18.598;2023-07-31T10:31:59;23.50;48.83
70271;SHT31;57680;54.292;18.598;2023-07-31T10:34:25;23.53;50.57
70271;SHT31;57680;54.292;18.598;2023-07-31T10:42:31;23.35;52.53
70271;SHT31;57680;54.292;18.598;2023-07-31T10:45:04;23.26;50.39
70271;SHT31;57680;54.292;18.598;2023-07-31T10:47:30;23.38;50.78
70271;SHT31;57680;54.292;18.598;2023-07-31T10:50:20;23.71;52.04
70271;SHT31;57680;54.292;18.598;2023-07-31T10:52:51;24.21;51.81
70271;SHT31;57680;54.292;18.598;2023-07-31T10:55:41;24.30;49.07
70271;SHT31;57680;54.292;18.598;2023-07-31T10:58:11;24.18;50.61
70271;SHT31;57680;54.292;18.598;2023-07-31T11:00:38;23.80;51.94
70271;SHT31;57680;54.292;18.598;2023-07-31T11:03:07;23.30;51.04
70271;SHT31;57680;54.292;18.598;2023-07-31T11:08:25;23.11;53.48
70271;SHT31;57680;54.292;18.598;2023-07-31T11:13:47;23.15;54.15
70271;SHT31;57680;54.292;18.598;2023-07-31T11:16:13;22.92;54.68
70271;SHT31;57680;54.292;18.598;2023-07-31T11:18:40;22.77;54.31
70271;SHT31;57680;54.292;18.598;2023-07-31T11:21:06;22.65;55.12
70271;SHT31;57680;54.292;18.598;2023-07-31T11:23:31;22.71;54.82
70271;SHT31;57680;54.292;18.598;2023-07-31T11:25:59;22.67;55.29
70271;SHT31;57680;54.292;18.598;2023-07-31T11:28:25;22.56;56.07
70271;SHT31;57680;54.292;18.598;2023-07-31T11:30:50;22.49;55.76
70271;SHT31;57680;54.292;18.598;2023-07-31T11:33:15;22.35;56.64
70271;SHT31;57680;54.292;18.598;2023-07-31T11:35:46;22.26;56.91
70271;SHT31;57680;54.292;18.598;2023-07-31T11:38:30;22.26;56.52
70271;SHT31;57680;54.292;18.598;2023-07-31T11:40:58;22.29;56.35
70271;SHT31;57680;54.292;18.598;2023-07-31T11:43:24;22.24;55.89
70271;SHT31;57680;54.292;18.598;2023-07-31T11:45:51;22.16;56.87
70271;SHT31;57680;54.292;18.598;2023-07-31T11:48:28;22.30;56.39
70271;SHT31;57680;54.292;18.598;2023-07-31T11:50:57;22.44;56.77
70271;SHT31;57680;54.292;18.598;2023-07-31T11:53:35;22.63;57.01
70271;SHT31;57680;54.292;18.598;2023-07-31T11:56:02;22.84;58.20
70271;SHT31;57680;54.292;18.598;2023-07-31T11:58:28;22.95;56.46
70271;SHT31;57680;54.292;18.598;2023-07-31T12:00:54;23.04;56.70
70271;SHT31;57680;54.292;18.598;2023-07-31T12:03:20;23.19;56.88
70271;SHT31;57680;54.292;18.598;2023-07-31T12:05:47;23.19;55.51
70271;SHT31;57680;54.292;18.598;2023-07-31T12:08:13;23.04;55.54
70271;SHT31;57680;54.292;18.598;2023-07-31T12:10:38;22.83;56.88
70271;SHT31;57680;54.292;18.598;2023-07-31T12:13:09;22.71;56.71
70271;SHT31;57680;54.292;18.598;2023-07-31T12:15:42;22.75;57.57
70271;SHT31;57680;54.292;18.598;2023-07-31T12:18:12;22.87;57.61
70271;SHT31;57680;54.292;18.598;2023-07-31T12:20:48;22.70;57.35
70271;SHT31;57680;54.292;18.598;2023-07-31T12:23:21;22.59;57.64
70271;SHT31;57680;54.292;18.598;2023-07-31T12:25:47;22.37;58.15
70271;SHT31;57680;54.292;18.598;2023-07-31T12:28:12;22.20;58.83
70271;SHT31;57680;54.292;18.598;2023-07-31T12:30:39;22.23;59.85
70271;SHT31;57680;54.292;18.598;2023-07-31T12:35:36;22.02;59.25
70271;SHT31;57680;54.292;18.598;2023-07-31T12:38:02;21.92;60.42
70271;SHT31;57680;54.292;18.598;2023-07-31T12:40:27;21.82;60.94
70271;SHT31;57680;54.292;18.598;2023-07-31T12:42:52;21.82;60.67
70271;SHT31;57680;54.292;18.598;2023-07-31T12:45:18;21.75;60.13
70271;SHT31;57680;54.292;18.598;2023-07-31T12:47:43;21.59;59.94
70271;SHT31;57680;54.292;18.598;2023-07-31T12:50:08;21.50;60.47
70271;SHT31;57680;54.292;18.598;2023-07-31T12:52:34;21.40;60.29
70271;SHT31;57680;54.292;18.598;2023-07-31T12:54:59;21.30;62.09
70271;SHT31;57680;54.292;18.598;2023-07-31T12:57:24;21.37;61.04
70271;SHT31;57680;54.292;18.598;2023-07-31T12:59:50;21.38;61.51
70271;SHT31;57680;54.292;18.598;2023-07-31T13:02:15;21.41;62.33
70271;SHT31;57680;54.292;18.598;2023-07-31T13:04:40;21.50;62.33
70271;SHT31;57680;54.292;18.598;2023-07-31T13:07:06;21.54;60.80
70271;SHT31;57680;54.292;18.598;2023-07-31T13:09:31;21.50;61.60
70271;SHT31;57680;54.292;18.598;2023-07-31T13:11:56;21.47;62.12
70271;SHT31;57680;54.292;18.598;2023-07-31T13:14:21;21.35;62.52
70271;SHT31;57680;54.292;18.598;2023-07-31T13:16:47;21.26;61.91
70271;SHT31;57680;54.292;18.598;2023-07-31T13:19:12;21.06;63.51
70271;SHT31;57680;54.292;18.598;2023-07-31T13:21:37;20.93;63.87
70271;SHT31;57680;54.292;18.598;2023-07-31T13:24:03;20.60;65.25
70271;SHT31;57680;54.292;18.598;2023-07-31T13:26:28;20.43;66.28
70271;SHT31;57680;54.292;18.598;2023-07-31T13:28:54;20.26;67.29
70271;SHT31;57680;54.292;18.598;2023-07-31T13:31:19;20.12;68.21
70271;SHT31;57680;54.292;18.598;2023-07-31T13:33:44;20.10;69.25
70271;SHT31;57680;54.292;18.598;2023-07-31T13:36:10;20.18;68.32
70271;SHT31;57680;54.292;18.598;2023-07-31T13:38:35;20.20;68.73
70271;SHT31;57680;54.292;18.598;2023-07-31T13:41:00;20.31;67.77
70271;SHT31;57680;54.292;18.598;2023-07-31T13:43:25;20.45;68.07
70271;SHT31;57680;54.292;18.598;2023-07-31T13:45:51;20.56;67.28
70271;SHT31;57680;54.292;18.598;2023-07-31T13:48:16;20.56;66.22
70271;SHT31;57680;54.292;18.598;2023-07-31T13:50:41;20.68;66.21
70271;SHT31;57680;54.292;18.598;2023-07-31T13:53:07;20.73;65.94
70271;SHT31;57680;54.292;18.598;2023-07-31T13:55:32;20.93;66.76
70271;SHT31;57680;54.292;18.598;2023-07-31T13:57:57;20.84;64.68
70271;SHT31;57680;54.292;18.598;2023-07-31T14:00:22;20.84;65.82
70271;SHT31;57680;54.292;18.598;2023-07-31T14:02:48;20.82;65.60
70271;SHT31;57680;54.292;18.598;2023-07-31T14:05:13;20.76;65.76
70271;SHT31;57680;54.292;18.598;2023-07-31T14:07:39;20.70;65.63
70271;SHT31;57680;54.292;18.598;2023-07-31T14:10:05;20.68;66.40
70271;SHT31;57680;54.292;18.598;2023-07-31T14:12:30;20.39;63.54
70271;SHT31;57680;54.292;18.598;2023-07-31T14:14:55;20.22;65.69
70271;SHT31;57680;54.292;18.598;2023-07-31T14:17:21;20.10;67.58
70271;SHT31;57680;54.292;18.598;2023-07-31T14:19:46;20.11;69.54
70271;SHT31;57680;54.292;18.598;2023-07-31T14:22:11;20.08;70.21
70271;SHT31;57680;54.292;18.598;2023-07-31T14:24:37;20.01;71.35
70271;SHT31;57680;54.292;18.598;2023-07-31T14:27:03;20.02;71.89
70271;SHT31;57680;54.292;18.598;2023-07-31T14:29:30;19.97;72.52
70271;SHT31;57680;54.292;18.598;2023-07-31T14:31:55;19.95;72.62
70271;SHT31;57680;54.292;18.598;2023-07-31T14:34:21;20.00;72.86
70271;SHT31;57680;54.292;18.598;2023-07-31T14:36:46;20.12;73.14
70271;SHT31;57680;54.292;18.598;2023-07-31T14:39:11;20.18;71.91
70271;SHT31;57680;54.292;18.598;2023-07-31T14:41:37;20.25;71.72
70271;SHT31;57680;54.292;18.598;2023-07-31T14:44:02;20.35;71.01
70271;SHT31;57680;54.292;18.598;2023-07-31T14:46:27;20.46;70.45
70271;SHT31;57680;54.292;18.598;2023-07-31T14:48:53;20.68;70.01
70271;SHT31;57680;54.292;18.598;2023-07-31T14:51:18;20.90;69.34
70271;SHT31;57680;54.292;18.598;2023-07-31T14:53:43;20.99;68.68
70271;SHT31;57680;54.292;18.598;2023-07-31T14:56:09;21.08;69.11
70271;SHT31;57680;54.292;18.598;2023-07-31T14:58:34;20.97;68.32
70271;SHT31;57680;54.292;18.598;2023-07-31T15:00:59;20.86;68.93
70271;SHT31;57680;54.292;18.598;2023-07-31T15:03:25;20.79;68.76
70271;SHT31;57680;54.292;18.598;2023-07-31T15:05:50;20.80;69.51
70271;SHT31;57680;54.292;18.598;2023-07-31T15:08:15;20.90;69.18
70271;SHT31;57680;54.292;18.598;2023-07-31T15:10:41;21.03;69.20
70271;SHT31;57680;54.292;18.598;2023-07-31T15:13:06;20.90;68.30
70271;SHT31;57680;54.292;18.598;2023-07-31T15:15:31;20.68;68.85
70271;SHT31;57680;54.292;18.598;2023-07-31T15:17:57;20.51;70.51
70271;SHT31;57680;54.292;18.598;2023-07-31T15:20:22;20.28;70.68
70271;SHT31;57680;54.292;18.598;2023-07-31T15:22:48;20.10;73.33
70271;SHT31;57680;54.292;18.598;2023-07-31T15:25:13;20.14;72.26
70271;SHT31;57680;54.292;18.598;2023-07-31T15:27:38;20.20;72.98
70271;SHT31;57680;54.292;18.598;2023-07-31T15:30:04;20.04;72.27
70271;SHT31;57680;54.292;18.598;2023-07-31T15:32:29;19.91;71.61
70271;SHT31;57680;54.292;18.598;2023-07-31T15:34:55;19.88;72.58